createdAt,value
2024-05-09T00:00:59.057Z,100099.56
2024-05-09T00:03:34.244Z,100099.94
2024-05-09T00:06:16.305Z,100093.84
2024-05-09T00:08:51.198Z,100094.66
2024-05-09T00:11:29.263Z,100101.75
2024-05-09T00:14:08.902Z,100094.25
2024-05-09T00:16:43.699Z,100103.53
2024-05-09T00:19:18.740Z,100099.63
2024-05-09T00:21:53.917Z,100092.13
2024-05-09T00:24:29.432Z,100095.25
2024-05-09T00:27:08.935Z,100100.59
2024-05-09T00:29:48.097Z,100090.69
2024-05-09T00:32:24.018Z,100092.25
2024-05-09T00:34:59.237Z,100094.38
2024-05-09T00:37:40.087Z,100096.75
2024-05-09T00:40:22.977Z,100099.44
2024-05-09T00:43:09.911Z,100097.34
2024-05-09T00:45:45.313Z,100103.72
2024-05-09T00:48:21.605Z,100101.41
2024-05-09T00:50:57.818Z,100105.81
2024-05-09T00:53:33.620Z,100104.06
2024-05-09T00:56:10.589Z,100107.59
2024-05-09T00:58:48.362Z,100105.28
2024-05-09T01:01:26.571Z,100097.19
2024-05-09T01:04:02.500Z,100105.19
2024-05-09T01:06:37.362Z,100103.84
2024-05-09T01:09:13.161Z,100104.53
2024-05-09T01:11:47.955Z,100105.75
2024-05-09T01:14:26.133Z,100096.00
2024-05-09T01:17:01.128Z,100097.78
2024-05-09T01:19:36.598Z,100097.44
2024-05-09T01:22:11.903Z,100094.50
2024-05-09T01:24:49.705Z,100091.94
2024-05-09T01:27:25.274Z,100096.41
2024-05-09T01:29:59.986Z,100102.44
2024-05-09T01:32:34.822Z,100103.91
2024-05-09T01:35:10.076Z,100110.69
2024-05-09T01:37:45.015Z,100099.41
2024-05-09T01:40:29.096Z,100100.66
2024-05-09T01:43:12.510Z,100108.13
2024-05-09T01:45:47.315Z,100097.75
2024-05-09T01:48:22.360Z,100102.97
2024-05-09T01:50:57.932Z,100103.25
2024-05-09T01:53:32.743Z,100087.16
2024-05-09T01:56:12.436Z,100102.41
2024-05-09T01:58:47.333Z,100100.06
2024-05-09T02:01:22.278Z,100089.25
2024-05-09T02:03:57.120Z,100096.94
2024-05-09T02:06:32.019Z,100089.78
2024-05-09T02:09:06.682Z,100105.06
2024-05-09T02:11:47.725Z,100091.78
2024-05-09T02:14:23.027Z,100082.19
2024-05-09T02:16:58.140Z,100085.50
2024-05-09T02:19:33.153Z,100086.59
2024-05-09T02:22:08.687Z,100083.84
2024-05-09T02:24:43.308Z,100087.00
2024-05-09T02:27:20.643Z,100085.72
2024-05-09T02:29:55.491Z,100083.38
2024-05-09T02:32:30.770Z,100084.22
2024-05-09T02:35:05.625Z,100089.97
2024-05-09T02:37:37.905Z,100083.91
2024-05-09T02:40:15.039Z,100089.91
2024-05-09T02:42:56.263Z,100082.13
2024-05-09T02:45:31.409Z,100076.91
2024-05-09T02:48:04.269Z,100081.66
2024-05-09T02:50:40.738Z,100072.81
2024-05-09T02:53:14.535Z,100075.94
2024-05-09T02:55:49.644Z,100075.59
2024-05-09T02:58:24.631Z,100077.00
2024-05-09T03:01:05.798Z,100067.53
2024-05-09T03:03:51.106Z,100070.84
2024-05-09T03:06:26.069Z,100071.03
2024-05-09T03:08:58.426Z,100077.59
2024-05-09T03:11:33.366Z,100074.97
2024-05-09T03:14:08.379Z,100078.69
2024-05-09T03:16:44.211Z,100076.91
2024-05-09T03:19:17.111Z,100079.16
2024-05-09T03:21:52.280Z,100081.84
2024-05-09T03:24:24.259Z,100067.84
2024-05-09T03:26:58.927Z,100068.88
2024-05-09T03:29:36.969Z,100071.16
2024-05-09T03:32:11.738Z,100077.94
2024-05-09T03:34:43.839Z,100080.50
2024-05-09T03:37:18.675Z,100078.31
2024-05-09T03:39:53.839Z,100075.91
2024-05-09T03:42:30.039Z,100067.16
2024-05-09T03:45:11.023Z,100076.19
2024-05-09T03:47:46.566Z,100063.59
2024-05-09T03:50:29.866Z,100068.41
2024-05-09T03:53:13.575Z,100069.94
2024-05-09T03:55:46.336Z,100072.25
2024-05-09T03:58:23.118Z,100067.97
2024-05-09T04:00:59.374Z,100068.19
2024-05-09T04:03:34.886Z,100065.75
2024-05-09T04:06:09.124Z,100073.88
2024-05-09T04:08:45.414Z,100068.31
2024-05-09T04:11:20.001Z,100071.84
2024-05-09T04:13:57.872Z,100075.16
2024-05-09T04:16:34.818Z,100079.91
2024-05-09T04:19:33.677Z,100090.25
2024-05-09T04:22:34.122Z,100076.25
2024-05-09T04:26:00.499Z,100082.25
2024-05-09T04:28:40.195Z,100083.13
2024-05-09T04:31:12.335Z,100085.03
2024-05-09T04:33:49.830Z,100086.72
2024-05-09T04:36:25.469Z,100084.31
2024-05-09T04:39:31.706Z,100092.00
2024-05-09T04:42:46.674Z,100095.88
2024-05-09T04:47:33.012Z,100096.66
2024-05-09T04:50:35.188Z,100091.13
2024-05-09T04:53:34.752Z,100097.50
2024-05-09T04:56:08.189Z,100098.63
2024-05-09T04:58:42.980Z,100095.28
2024-05-09T05:01:37.999Z,100097.25
2024-05-09T05:04:28.482Z,100099.56
2024-05-09T05:07:18.977Z,100087.81
2024-05-09T05:10:25.460Z,100092.75
2024-05-09T05:13:24.785Z,100098.56
2024-05-09T05:16:06.463Z,100094.25
2024-05-09T05:18:47.171Z,100096.94
2024-05-09T05:21:39.043Z,100096.75
2024-05-09T05:24:20.580Z,100089.59
2024-05-09T05:26:55.286Z,100106.19
2024-05-09T05:29:27.679Z,100098.97
2024-05-09T05:32:02.853Z,100104.03
2024-05-09T05:34:35.129Z,100112.66
2024-05-09T05:37:09.990Z,100116.28
2024-05-09T05:39:44.897Z,100114.50
2024-05-09T05:42:22.096Z,100119.91
2024-05-09T05:44:54.453Z,100114.72
2024-05-09T05:47:29.528Z,100115.41
2024-05-09T05:50:02.972Z,100115.53
2024-05-09T05:52:38.971Z,100116.56
2024-05-09T05:55:14.013Z,100107.47
2024-05-09T05:57:49.250Z,100109.84
2024-05-09T06:00:29.104Z,100110.97
2024-05-09T06:03:11.008Z,100118.25
2024-05-09T06:05:45.602Z,100122.22
2024-05-09T06:08:20.947Z,100132.47
2024-05-09T06:10:55.847Z,100133.78
2024-05-09T06:13:31.238Z,100134.16
2024-05-09T06:16:05.375Z,100134.69
2024-05-09T06:18:43.156Z,100133.47
2024-05-09T06:21:17.086Z,100135.91
2024-05-09T06:23:53.476Z,100143.09
2024-05-09T06:26:28.594Z,100139.84
2024-05-09T06:29:04.446Z,100141.09
2024-05-09T06:31:40.035Z,100147.88
2024-05-09T06:34:15.099Z,100146.28
2024-05-09T06:36:48.048Z,100146.28
2024-05-09T06:39:23.197Z,100152.28
2024-05-09T06:41:58.851Z,100154.25
2024-05-09T06:44:34.219Z,100151.88
2024-05-09T06:47:06.727Z,100161.00
2024-05-09T06:49:41.984Z,100168.19
2024-05-09T06:52:14.349Z,100160.19
2024-05-09T06:54:49.127Z,100157.44
2024-05-09T06:57:24.042Z,100151.88
2024-05-09T07:00:00.993Z,100149.50
2024-05-09T07:02:33.369Z,100145.50
2024-05-09T07:05:08.899Z,100147.88
2024-05-09T07:07:41.105Z,100146.31
2024-05-09T07:10:22.104Z,100156.25
2024-05-09T07:13:07.652Z,100143.84
2024-05-09T07:15:43.114Z,100148.78
2024-05-09T07:18:18.202Z,100143.56
2024-05-09T07:20:54.036Z,100144.38
2024-05-09T07:23:26.465Z,100139.31
2024-05-09T07:26:01.342Z,100154.75
2024-05-09T07:28:36.359Z,100152.34
2024-05-09T07:31:11.692Z,100143.22
2024-05-09T07:33:43.972Z,100142.69
2024-05-09T07:36:18.686Z,100138.03
2024-05-09T07:38:51.191Z,100146.38
2024-05-09T07:41:26.339Z,100132.16
2024-05-09T07:44:03.720Z,100134.34
2024-05-09T07:47:47.851Z,100133.16
2024-05-09T07:53:29.729Z,100142.44
2024-05-09T07:55:06.309Z,100142.81
2024-05-09T07:57:41.340Z,100139.78
2024-05-09T08:00:20.428Z,100140.22
2024-05-09T08:03:01.761Z,100132.72
2024-05-09T08:05:34.357Z,100126.09
2024-05-09T08:08:09.550Z,100127.00
2024-05-09T08:10:42.586Z,100135.88
2024-05-09T08:13:17.284Z,100134.28
2024-05-09T08:15:52.862Z,100129.34
2024-05-09T08:18:28.265Z,100133.03
2024-05-09T08:21:00.953Z,100133.56
2024-05-09T08:23:36.432Z,100126.19
2024-05-09T08:26:08.827Z,100123.56
2024-05-09T08:28:43.612Z,100123.63
2024-05-09T08:31:19.788Z,100123.56
2024-05-09T08:33:56.773Z,100112.00
2024-05-09T08:36:29.144Z,100118.53
2024-05-09T08:39:04.183Z,100121.63
2024-05-09T08:41:42.243Z,100115.81
2024-05-09T08:44:17.274Z,100118.69
2024-05-09T08:46:52.571Z,100114.03
2024-05-09T08:49:29.159Z,100114.63
2024-05-09T08:52:01.375Z,100112.47
2024-05-09T08:54:36.910Z,100107.69
2024-05-09T08:57:09.363Z,100108.59
2024-05-09T08:59:50.830Z,100108.75
2024-05-09T09:02:27.835Z,100112.72
2024-05-09T09:05:11.402Z,100107.25
2024-05-09T09:07:48.530Z,100103.13
2024-05-09T09:10:29.953Z,100107.47
2024-05-09T09:13:09.932Z,100102.59
2024-05-09T09:15:52.022Z,100107.00
2024-05-09T09:18:28.472Z,100103.22
2024-05-09T09:21:03.931Z,100105.94
2024-05-09T09:23:36.082Z,100094.31
2024-05-09T09:26:11.449Z,100097.63
2024-05-09T09:28:44.962Z,100095.97
2024-05-09T09:31:22.522Z,100094.75
2024-05-09T09:33:57.419Z,100088.00
2024-05-09T09:36:33.592Z,100099.28
2024-05-09T09:39:07.581Z,100093.34
2024-05-09T09:41:50.298Z,100087.78
2024-05-09T09:44:22.968Z,100083.06
2024-05-09T09:46:59.446Z,100078.81
2024-05-09T09:49:36.969Z,100081.53
2024-05-09T09:52:12.311Z,100078.19
2024-05-09T09:54:45.984Z,100086.34
2024-05-09T09:57:22.384Z,100072.69
2024-05-09T09:59:55.917Z,100076.88
2024-05-09T10:02:30.986Z,100074.34
2024-05-09T10:05:07.151Z,100074.56
2024-05-09T10:07:45.660Z,100060.03
2024-05-09T10:10:29.947Z,100056.66
2024-05-09T10:13:09.093Z,100064.75
2024-05-09T10:15:45.816Z,100050.91
2024-05-09T10:18:27.870Z,100071.31
2024-05-09T10:21:15.592Z,100053.97
2024-05-09T10:24:00.705Z,100055.97
2024-05-09T10:26:34.114Z,100059.53
2024-05-09T10:29:15.617Z,100055.06
2024-05-09T10:31:48.202Z,100055.66
2024-05-09T10:34:24.559Z,100046.84
2024-05-09T10:37:04.191Z,100043.59
2024-05-09T10:39:39.952Z,100033.50
2024-05-09T10:42:12.016Z,100029.06
2024-05-09T10:44:46.738Z,100036.44
2024-05-09T10:47:19.466Z,100036.81
2024-05-09T10:49:54.866Z,100029.66
2024-05-09T10:52:30.007Z,100036.25
2024-05-09T10:55:05.725Z,100030.88
2024-05-09T10:57:38.993Z,100012.56
2024-05-09T11:00:23.322Z,100023.31
2024-05-09T11:03:02.525Z,100011.69
2024-05-09T11:05:38.954Z,100016.88
2024-05-09T11:08:13.945Z,100018.06
2024-05-09T11:10:49.240Z,100014.81
2024-05-09T11:13:28.167Z,100015.31
2024-05-09T11:16:03.981Z,100013.91
2024-05-09T11:18:38.862Z,100011.72
2024-05-09T11:21:15.394Z,100015.50
2024-05-09T11:23:50.456Z,100006.03
2024-05-09T11:26:28.252Z,100000.97
2024-05-09T11:29:00.703Z,99996.41
2024-05-09T11:31:37.283Z,99993.50
2024-05-09T11:34:10.299Z,99991.81
2024-05-09T11:36:45.272Z,99989.13
2024-05-09T11:39:20.329Z,99987.69
2024-05-09T11:41:55.130Z,99988.13
2024-05-09T11:44:27.541Z,99988.88
2024-05-09T11:47:02.485Z,99981.91
2024-05-09T11:49:34.692Z,99986.84
2024-05-09T11:52:09.673Z,99974.28
2024-05-09T11:54:44.966Z,99971.88
2024-05-09T11:57:19.642Z,99964.50
2024-05-09T11:59:51.761Z,99953.97
2024-05-09T12:02:26.777Z,99960.94
2024-05-09T12:04:59.054Z,99960.25
2024-05-09T12:07:34.166Z,99953.56
2024-05-09T12:10:14.039Z,99957.19
2024-05-09T12:12:54.453Z,99955.06
2024-05-09T12:15:26.523Z,99945.97
2024-05-09T12:18:03.775Z,99951.91
2024-05-09T12:20:39.327Z,99936.66
2024-05-09T12:23:14.850Z,99947.41
2024-05-09T12:25:50.077Z,99944.69
2024-05-09T12:28:26.400Z,99931.72
2024-05-09T12:30:58.700Z,99939.19
2024-05-09T12:33:33.433Z,99935.38
2024-05-09T12:36:06.631Z,99923.31
2024-05-09T12:38:41.431Z,99922.47
2024-05-09T12:41:16.130Z,99921.38
2024-05-09T12:43:50.982Z,99910.22
2024-05-09T12:46:24.200Z,99917.06
2024-05-09T12:48:59.206Z,99911.41
2024-05-09T12:51:31.844Z,99918.38
2024-05-09T12:54:10.754Z,99905.31
2024-05-09T12:56:45.745Z,99914.59
2024-05-09T12:59:22.831Z,99909.00
2024-05-09T13:01:57.411Z,99911.13
2024-05-09T13:04:34.530Z,99910.41
2024-05-09T13:07:08.119Z,99907.91
2024-05-09T13:09:42.925Z,99889.66
2024-05-09T13:12:17.881Z,99882.63
2024-05-09T13:14:57.559Z,99897.75
2024-05-09T13:17:57.270Z,99884.00
2024-05-09T13:20:39.936Z,99891.63
2024-05-09T13:23:18.745Z,99883.19
2024-05-09T13:25:50.917Z,99896.00
2024-05-09T13:28:28.305Z,99881.09
2024-05-09T13:31:00.630Z,99875.38
2024-05-09T13:33:36.253Z,99873.56
2024-05-09T13:36:08.678Z,99861.28
2024-05-09T13:38:43.437Z,99856.16
2024-05-09T13:41:15.737Z,99861.81
2024-05-09T13:43:53.631Z,99860.56
2024-05-09T13:46:26.162Z,99858.38
2024-05-09T13:49:00.951Z,99851.47
2024-05-09T13:51:33.629Z,99845.84
2024-05-09T13:54:08.430Z,99841.06
2024-05-09T13:56:41.874Z,99843.50
2024-05-09T13:59:19.157Z,99840.84
2024-05-09T14:01:52.455Z,99840.13
2024-05-09T14:04:27.423Z,99827.00
2024-05-09T14:06:59.681Z,99825.19
2024-05-09T14:09:35.024Z,99834.72
2024-05-09T14:12:09.732Z,99820.16
2024-05-09T14:14:48.962Z,99817.69
2024-05-09T14:17:23.876Z,99807.56
2024-05-09T14:19:56.209Z,99811.09
2024-05-09T14:22:30.841Z,99810.00
2024-05-09T14:25:03.117Z,99803.56
2024-05-09T14:27:38.560Z,99809.16
2024-05-09T14:30:22.128Z,99804.25
2024-05-09T14:33:01.546Z,99799.69
2024-05-09T14:35:34.290Z,99797.00
2024-05-09T14:38:09.998Z,99794.69
2024-05-09T14:40:44.048Z,99790.53
2024-05-09T14:43:21.335Z,99794.38
2024-05-09T14:45:56.738Z,99782.22
2024-05-09T14:48:32.392Z,99780.97
2024-05-09T14:51:04.903Z,99782.47
2024-05-09T14:53:40.055Z,99777.41
2024-05-09T14:56:12.736Z,99771.09
2024-05-09T14:58:47.686Z,99777.84
2024-05-09T15:01:24.046Z,99769.69
2024-05-09T15:03:58.976Z,99768.75
2024-05-09T15:06:31.060Z,99767.28
2024-05-09T15:09:06.624Z,99767.94
2024-05-09T15:11:39.029Z,99766.66
2024-05-09T15:14:14.084Z,99757.06
2024-05-09T15:16:49.178Z,99756.03
2024-05-09T15:19:23.947Z,99752.59
2024-05-09T15:21:56.786Z,99748.91
2024-05-09T15:24:33.311Z,99740.81
2024-05-09T15:27:05.818Z,99737.56
2024-05-09T15:29:40.663Z,99740.31
2024-05-09T15:32:15.383Z,99737.28
2024-05-09T15:34:50.290Z,99741.31
2024-05-09T15:37:22.545Z,99741.44
2024-05-09T15:39:57.396Z,99742.03
2024-05-09T15:42:29.399Z,99740.16
2024-05-09T15:45:04.438Z,99734.66
2024-05-09T15:47:39.479Z,99727.38
2024-05-09T15:50:20.546Z,99731.63
2024-05-09T15:53:03.721Z,99740.00
2024-05-09T15:55:38.726Z,99732.63
2024-05-09T15:58:12.573Z,99736.56
2024-05-09T16:00:52.376Z,99731.72
2024-05-09T16:03:28.382Z,99730.53
2024-05-09T16:06:03.768Z,99728.13
2024-05-09T16:08:36.731Z,99727.63
2024-05-09T16:11:13.047Z,99725.28
2024-05-09T16:13:45.377Z,99724.41
2024-05-09T16:16:20.504Z,99721.16
2024-05-09T16:18:55.310Z,99723.34
2024-05-09T16:21:30.529Z,99724.66
2024-05-09T16:24:02.560Z,99720.19
2024-05-09T16:26:37.588Z,99723.34
2024-05-09T16:29:09.894Z,99717.09
2024-05-09T16:31:44.578Z,99717.34
2024-05-09T16:34:21.992Z,99721.84
2024-05-09T16:36:54.180Z,99712.00
2024-05-09T16:39:29.056Z,99723.00
2024-05-09T16:42:01.453Z,99712.28
2024-05-09T16:44:36.485Z,99713.41
2024-05-09T16:47:08.895Z,99712.31
2024-05-09T16:49:46.569Z,99710.56
2024-05-09T16:52:18.824Z,99705.22
2024-05-09T16:54:53.490Z,99711.59
2024-05-09T16:57:25.492Z,99715.44
2024-05-09T17:00:00.367Z,99710.09
2024-05-09T17:02:35.594Z,99707.63
2024-05-09T17:05:13.542Z,99711.69
2024-05-09T17:07:47.604Z,99701.72
2024-05-09T17:10:29.528Z,99702.66
2024-05-09T17:13:08.529Z,99699.66
2024-05-09T17:15:44.526Z,99708.84
2024-05-09T17:18:19.445Z,99699.75
2024-05-09T17:20:57.033Z,99701.53
2024-05-09T17:23:31.857Z,99701.00
2024-05-09T17:26:08.612Z,99692.72
2024-05-09T17:28:41.031Z,99701.25
2024-05-09T17:31:16.152Z,99692.47
2024-05-09T17:33:48.478Z,99697.69
2024-05-09T17:36:25.808Z,99701.41
2024-05-09T17:38:58.071Z,99695.53
2024-05-09T17:41:32.615Z,99708.75
2024-05-09T17:44:04.676Z,99703.81
2024-05-09T17:46:39.384Z,99699.28
2024-05-09T17:49:13.831Z,99696.63
2024-05-09T17:51:57.272Z,99700.38
2024-05-09T17:54:29.482Z,99695.88
2024-05-09T17:57:04.124Z,99699.03
2024-05-09T17:59:36.468Z,99699.38
2024-05-09T18:02:11.597Z,99700.19
2024-05-09T18:04:43.690Z,99708.63
2024-05-09T18:07:21.179Z,99701.16
2024-05-09T18:09:53.245Z,99713.44
2024-05-09T18:12:28.231Z,99698.72
2024-05-09T18:15:00.258Z,99700.72
2024-05-09T18:17:35.928Z,99711.00
2024-05-09T18:20:17.214Z,99699.06
2024-05-09T18:22:57.945Z,99706.59
2024-05-09T18:25:29.982Z,99712.50
2024-05-09T18:28:06.205Z,99710.09
2024-05-09T18:30:40.679Z,99705.19
2024-05-09T18:33:16.359Z,99709.09
2024-05-09T18:35:48.985Z,99710.44
2024-05-09T18:38:27.031Z,99713.59
2024-05-09T18:40:59.455Z,99718.06
2024-05-09T18:43:38.555Z,99724.03
2024-05-09T18:46:17.196Z,99722.72
2024-05-09T18:48:52.532Z,99722.03
2024-05-09T18:51:24.580Z,99723.59
2024-05-09T18:54:01.954Z,99721.47
2024-05-09T18:56:34.024Z,99727.44
2024-05-09T18:59:09.465Z,99732.41
2024-05-09T19:01:42.407Z,99722.81
2024-05-09T19:04:18.815Z,99741.66
2024-05-09T19:06:51.226Z,99736.94
2024-05-09T19:09:29.737Z,99743.75
2024-05-09T19:12:06.310Z,99744.53
2024-05-09T19:14:41.223Z,99749.09
2024-05-09T19:17:13.510Z,99751.97
2024-05-09T19:19:49.375Z,99750.19
2024-05-09T19:22:22.188Z,99746.94
2024-05-09T19:24:59.830Z,99750.91
2024-05-09T19:27:32.957Z,99754.06
2024-05-09T19:30:17.427Z,99755.31
2024-05-09T19:32:59.569Z,99754.75
2024-05-09T19:35:31.913Z,99755.97
2024-05-09T19:38:06.955Z,99761.03
2024-05-09T19:40:41.832Z,99755.31
2024-05-09T19:43:16.865Z,99755.63
2024-05-09T19:45:49.230Z,99760.25
2024-05-09T19:48:24.650Z,99761.28
2024-05-09T19:50:57.202Z,99755.28
2024-05-09T19:53:32.050Z,99756.00
2024-05-09T19:56:08.592Z,99757.97
2024-05-09T19:58:43.834Z,99757.19
2024-05-09T20:01:17.903Z,99760.41
2024-05-09T20:04:02.433Z,99763.06
2024-05-09T20:06:34.873Z,99769.97
2024-05-09T20:09:10.010Z,99764.72
2024-05-09T20:11:47.675Z,99762.47
2024-05-09T20:14:20.404Z,99769.34
2024-05-09T20:16:56.819Z,99762.41
2024-05-09T20:19:29.310Z,99770.47
2024-05-09T20:22:04.257Z,99762.81
2024-05-09T20:24:36.957Z,99762.31
2024-05-09T20:27:14.210Z,99763.22
2024-05-09T20:29:46.539Z,99760.53
2024-05-09T20:32:21.513Z,99769.63
2024-05-09T20:34:53.959Z,99766.78
2024-05-09T20:37:28.810Z,99771.66
2024-05-09T20:40:01.080Z,99777.44
2024-05-09T20:42:39.093Z,99765.19
2024-05-09T20:45:11.158Z,99765.13
2024-05-09T20:47:45.881Z,99768.41
2024-05-09T20:50:27.864Z,99763.75
2024-05-09T20:53:12.357Z,99760.25
2024-05-09T20:55:45.676Z,99763.53
2024-05-09T20:58:23.194Z,99766.22
2024-05-09T21:00:55.437Z,99755.00
2024-05-09T21:03:30.942Z,99763.19
2024-05-09T21:06:02.970Z,99758.28
2024-05-09T21:08:38.256Z,99757.13
2024-05-09T21:11:10.736Z,99761.06
2024-05-09T21:13:48.186Z,99753.28
2024-05-09T21:16:20.423Z,99753.78
2024-05-09T21:18:55.328Z,99760.84
2024-05-09T21:21:27.618Z,99754.69
2024-05-09T21:24:02.327Z,99754.81
2024-05-09T21:26:34.975Z,99758.50
2024-05-09T21:29:12.585Z,99761.03
2024-05-09T21:31:44.899Z,99768.78
2024-05-09T21:34:19.797Z,99761.53
2024-05-09T21:36:51.876Z,99761.16
2024-05-09T21:39:27.423Z,99771.81
2024-05-09T21:42:02.068Z,99761.44
2024-05-09T21:44:39.965Z,99760.38
2024-05-09T21:47:12.337Z,99761.91
2024-05-09T21:49:47.287Z,99761.78
2024-05-09T21:52:19.840Z,99756.50
2024-05-09T21:54:54.569Z,99753.19
2024-05-09T21:57:26.664Z,99757.78
2024-05-09T22:00:11.531Z,99760.88
2024-05-09T22:02:46.489Z,99756.84
2024-05-09T22:05:22.035Z,99756.66
2024-05-09T22:07:54.089Z,99768.28
2024-05-09T22:10:33.909Z,99765.25
2024-05-09T22:13:08.889Z,99767.69
2024-05-09T22:15:46.901Z,99772.38
2024-05-09T22:18:19.384Z,99767.69
2024-05-09T22:20:55.216Z,99764.53
2024-05-09T22:23:30.179Z,99765.31
2024-05-09T22:26:02.348Z,99772.88
2024-05-09T22:28:36.985Z,99776.22
2024-05-09T22:31:11.603Z,99773.53
2024-05-09T22:33:48.264Z,99777.16
2024-05-09T22:36:20.841Z,99783.72
2024-05-09T22:38:55.400Z,99778.88
2024-05-09T22:41:27.599Z,99778.53
2024-05-09T22:44:02.647Z,99770.53
2024-05-09T22:46:40.120Z,99766.59
2024-05-09T22:49:12.469Z,99776.81
2024-05-09T22:51:47.244Z,99776.13
2024-05-09T22:54:19.346Z,99776.16
2024-05-09T22:56:53.905Z,99784.59
2024-05-09T22:59:26.409Z,99790.78
2024-05-09T23:02:03.830Z,99791.81
2024-05-09T23:04:38.922Z,99784.66
2024-05-09T23:07:13.649Z,99780.78
2024-05-09T23:09:46.111Z,99775.59
2024-05-09T23:12:21.178Z,99780.66
2024-05-09T23:14:53.874Z,99777.22
2024-05-09T23:17:31.096Z,99774.34
2024-05-09T23:20:05.283Z,99769.91
2024-05-09T23:22:41.788Z,99769.44
2024-05-09T23:25:14.328Z,99776.56
2024-05-09T23:27:49.272Z,99776.56
2024-05-09T23:30:29.356Z,99770.50
2024-05-09T23:33:15.683Z,99776.50
2024-05-09T23:35:47.723Z,99770.19
2024-05-09T23:38:24.058Z,99773.84
2024-05-09T23:40:56.603Z,99773.03
2024-05-09T23:43:31.828Z,99769.00
2024-05-09T23:46:03.913Z,99768.66
2024-05-09T23:48:41.561Z,99766.31
2024-05-09T23:51:15.034Z,99771.91
2024-05-09T23:53:50.402Z,99759.56
2024-05-09T23:56:22.424Z,99754.31
2024-05-09T23:58:57.172Z,99751.22
